Weather at Old Bridge Airport

Public forecast

Using degrees Fahrenheit for public forecast. Weather courtesy of forecast.io.

Closest aviation weather report (METAR) to Old Bridge Airport

Closest report is Monmouth Executive Airport, 13.3 nm (24.6 km) SE.

2024/06/21 03:56 (retrieved 46 minutes ago)

KBLM 210356Z AUTO 22006KT CLR 24/19 A3025 RMK AO2 SLP243 T02390189 PWINO RVRNO

Closest aviation forecast (TAF) to Old Bridge Airport

Forecast is more than 6 hours old.

Closest forecast is Davison Army Air Field, 163.2 nm (302.2 km) SW.

2024/06/20 20:03 (retrieved 9 hours ago)

TAF KDAA 202000Z 2020/2202 16007KT 9999 FEW040 BKN250 QNH3027INS BECMG 2022/2023 VRB05KT 9999 SCT250 QNH3024INS BECMG 2112/2113 21006KT 9999 FEW050 SCT250 QNH3020INS TX33/2020Z TN20/2110Z LAST NO AMDS AFT 2102 NEXT 2112